Time;durP1;ratioP1;P1;durP2;ratioP2;P2;SDS_P1;SDS_P2;PMS_P1;PMS_P2;Temp;Humidity;BMP_temperature;BMP_pressure;BME280_temperature;BME280_humidity;BME280_pressure;Samples;Min_cycle;Max_cycle;Signal;HPM_P1;HPM_P2
2024/02/05 00:01:49;;;;;;;2.00;0.90;;;;;;;7.38;56.80;93331.53;2068455;69;20128;-85
2024/02/05 00:04:14;;;;;;;0.90;0.70;;;;;;;7.57;55.87;93356.91;2068391;69;20143;-82
2024/02/05 00:06:40;;;;;;;1.80;0.70;;;;;;;7.58;56.32;93361.19;2068469;69;20180;-84
2024/02/05 00:09:07;;;;;;;3.30;0.90;;;;;;;7.27;56.83;93348.81;2068097;69;20254;-84
2024/02/05 00:11:33;;;;;;;1.83;0.80;;;;;;;7.05;57.23;93344.88;2067716;69;20267;-83
2024/02/05 00:14:00;;;;;;;2.08;0.80;;;;;;;7.20;56.95;93330.03;2068641;69;20184;-82
2024/02/05 00:16:25;;;;;;;1.30;0.85;;;;;;;7.13;56.48;93320.34;2068402;69;20145;-83
2024/02/05 00:18:52;;;;;;;2.28;0.82;;;;;;;7.36;56.55;93357.31;2068128;69;20164;-82
2024/02/05 00:21:17;;;;;;;1.88;0.80;;;;;;;7.42;56.20;93359.13;2067871;69;20164;-81
2024/02/05 00:23:44;;;;;;;2.15;0.60;;;;;;;7.43;56.73;93335.41;2067612;69;20601;-81
2024/02/05 00:26:11;;;;;;;1.23;0.60;;;;;;;7.60;55.44;93324.19;2067894;69;20144;-81
2024/02/05 00:28:37;;;;;;;2.08;0.75;;;;;;;7.42;56.43;93359.13;2067518;69;20156;-81
2024/02/05 00:31:03;;;;;;;1.08;0.80;;;;;;;7.28;57.02;93355.88;2068409;69;20137;-84
2024/02/05 00:33:28;;;;;;;1.17;0.50;;;;;;;7.52;56.57;93334.75;2068421;69;20239;-82
2024/02/05 00:35:54;;;;;;;1.23;0.80;;;;;;;7.64;55.59;93336.47;2068362;69;20248;-83
2024/02/05 00:38:20;;;;;;;2.65;0.80;;;;;;;7.46;56.38;93340.56;2068541;69;20575;-84
2024/02/05 00:40:47;;;;;;;2.50;0.80;;;;;;;6.94;57.62;93354.50;2068146;69;20143;-84
2024/02/05 00:43:13;;;;;;;1.40;0.73;;;;;;;7.33;56.64;93350.06;2067891;69;20147;-84
2024/02/05 00:45:38;;;;;;;0.85;0.50;;;;;;;7.33;56.86;93321.28;2068363;69;20524;-84
2024/02/05 00:48:05;;;;;;;2.00;0.50;;;;;;;7.52;55.99;93331.97;2068143;69;20580;-84
2024/02/05 00:50:30;;;;;;;0.95;0.65;;;;;;;7.60;55.98;93332.59;2067959;69;20144;-85
2024/02/05 00:52:56;;;;;;;2.03;0.70;;;;;;;7.36;56.29;93342.56;2067839;69;20164;-84
2024/02/05 00:55:21;;;;;;;2.10;0.70;;;;;;;7.33;56.30;93335.28;2068074;69;20171;-86
2024/02/05 00:57:50;;;;;;;1.05;0.70;;;;;;;7.31;56.73;93333.06;2068376;69;20552;-84
2024/02/05 01:00:16;;;;;;;1.00;0.73;;;;;;;7.46;56.30;93334.97;2068396;69;20596;-83
2024/02/05 01:02:42;;;;;;;1.05;0.63;;;;;;;7.48;57.29;93337.22;2068558;69;20194;-85
2024/02/05 01:05:07;;;;;;;2.83;0.60;;;;;;;7.23;57.68;93326.06;2068041;69;20137;-85
2024/02/05 01:07:33;;;;;;;1.90;0.90;;;;;;;7.33;57.17;93335.28;2068363;69;20604;-84
2024/02/05 01:09:59;;;;;;;2.38;0.80;;;;;;;7.36;56.66;93339.75;2067992;69;20231;-84
2024/02/05 01:12:26;;;;;;;2.25;1.05;;;;;;;7.35;56.63;93335.47;2070565;69;20149;-83
2024/02/05 01:14:52;;;;;;;1.25;0.80;;;;;;;7.39;56.41;93333.75;2070001;69;20221;-83
2024/02/05 01:17:18;;;;;;;3.35;0.90;;;;;;;7.12;57.04;93333.63;2068940;69;20247;-84
2024/02/05 01:19:44;;;;;;;0.98;0.60;;;;;;;7.14;57.77;93336.59;2068407;69;20624;-82
2024/02/05 01:22:09;;;;;;;2.88;0.60;;;;;;;7.39;57.13;93335.81;2067983;69;20172;-82
2024/02/05 01:24:38;;;;;;;1.88;0.70;;;;;;;6.93;57.66;93347.41;2067957;69;20133;-81
2024/02/05 01:27:05;;;;;;;1.55;0.80;;;;;;;6.82;58.19;93331.81;2068538;69;20152;-82
2024/02/05 01:29:31;;;;;;;1.30;0.80;;;;;;;6.76;58.26;93313.78;2068433;69;20214;-84
2024/02/05 01:31:56;;;;;;;2.25;0.90;;;;;;;7.06;57.76;93326.78;2068541;69;20651;-83
2024/02/05 01:34:22;;;;;;;2.55;0.55;;;;;;;7.11;57.91;93346.16;2068666;69;20588;-84
2024/02/05 01:36:47;;;;;;;1.48;0.63;;;;;;;7.00;57.25;93324.19;2068974;69;20149;-83
2024/02/05 01:39:15;;;;;;;4.05;0.70;;;;;;;7.34;56.69;93329.13;2068805;69;20227;-84
2024/02/05 01:41:41;;;;;;;0.73;0.43;;;;;;;7.54;56.54;93334.91;2068828;69;20148;-83
2024/02/05 01:44:07;;;;;;;1.25;0.50;;;;;;;7.64;56.10;93302.84;2068968;69;20618;-85
2024/02/05 01:46:36;;;;;;;1.40;0.55;;;;;;;8.02;54.04;93300.94;2070697;69;20156;-83
2024/02/05 01:49:06;;;;;;;1.92;0.60;;;;;;;7.36;56.66;93326.47;2068450;69;20128;-84
2024/02/05 01:51:43;;;;;;;2.90;0.60;;;;;;;7.60;55.83;93324.19;2069144;69;20145;-84
2024/02/05 01:54:13;;;;;;;1.67;0.50;;;;;;;7.62;56.06;93296.34;2069145;69;20233;-84
2024/02/05 01:56:40;;;;;;;4.43;0.47;;;;;;;7.39;57.71;93308.53;2068949;69;20136;-83
2024/02/05 01:59:06;;;;;;;1.02;0.73;;;;;;;7.33;57.13;93332.50;2068891;69;20152;-84
2024/02/05 02:01:37;;;;;;;1.05;0.75;;;;;;;6.93;57.78;93311.03;2068843;69;20543;-82
2024/02/05 02:04:04;;;;;;;1.45;0.55;;;;;;;7.46;56.67;93312.56;2068282;69;20228;-82
2024/02/05 02:06:30;;;;;;;0.30;0.30;;;;;;;7.83;54.42;93279.09;2068471;69;20168;-83
2024/02/05 02:08:56;;;;;;;0.73;0.52;;;;;;;7.97;54.43;93291.44;2068963;69;20228;-84
2024/02/05 02:11:22;;;;;;;0.60;0.60;;;;;;;7.67;55.36;93314.97;2068203;69;20153;-83
2024/02/05 02:13:47;;;;;;;1.00;0.47;;;;;;;7.83;54.70;93307.88;2068052;69;20435;-83
2024/02/05 02:16:17;;;;;;;1.05;0.63;;;;;;;7.91;55.01;93313.38;2068572;69;20226;-83
2024/02/05 02:18:46;;;;;;;1.25;0.40;;;;;;;7.81;55.59;93276.88;2068578;69;20571;-82
2024/02/05 02:21:14;;;;;;;2.35;0.60;;;;;;;8.01;54.54;93293.81;2068798;69;20155;-83
2024/02/05 02:23:43;;;;;;;0.60;0.55;;;;;;;7.70;55.59;93316.63;2068965;69;20195;-85
2024/02/05 02:26:09;;;;;;;0.70;0.40;;;;;;;7.80;55.00;93292.22;2068624;69;20180;-81
2024/02/05 02:28:36;;;;;;;1.08;0.47;;;;;;;7.68;55.39;93273.66;2068701;69;20145;-84
2024/02/05 02:31:02;;;;;;;1.00;0.50;;;;;;;7.74;55.14;93307.78;2068631;69;20210;-83
2024/02/05 02:34:07;;;;;;;2.00;0.55;;;;;;;7.83;55.05;93307.88;2068512;69;20612;-83
2024/02/05 02:36:38;;;;;;;0.75;0.32;;;;;;;7.89;55.16;93288.00;2068006;69;20207;-83
2024/02/05 02:39:23;;;;;;;1.40;0.40;;;;;;;8.18;53.08;93282.56;2065573;69;20592;-84
2024/02/05 02:41:54;;;;;;;0.90;0.60;;;;;;;7.88;54.88;93309.69;2068851;69;20643;-82
2024/02/05 02:44:20;;;;;;;1.88;0.55;;;;;;;7.69;55.86;93303.91;2068953;69;20247;-83
2024/02/05 02:46:46;;;;;;;0.68;0.50;;;;;;;7.79;55.66;93301.19;2070138;69;20144;-81
2024/02/05 02:49:12;;;;;;;1.42;0.52;;;;;;;7.75;54.81;93273.59;2068591;69;20149;-83
2024/02/05 02:51:38;;;;;;;1.75;0.55;;;;;;;7.65;55.47;93297.97;2068533;69;20589;-82
2024/02/05 02:54:03;;;;;;;0.60;0.50;;;;;;;7.75;55.04;93324.03;2068036;69;20480;-83
2024/02/05 02:56:29;;;;;;;0.43;0.40;;;;;;;7.78;54.68;93324.94;2068117;69;20160;-82
2024/02/05 02:58:56;;;;;;;0.65;0.38;;;;;;;7.81;55.20;93304.16;2068371;69;20137;-83
2024/02/05 03:01:21;;;;;;;1.30;0.50;;;;;;;7.83;54.80;93277.03;2068721;69;20155;-82
2024/02/05 03:03:47;;;;;;;2.50;0.60;;;;;;;7.60;55.46;93302.50;2068657;69;20176;-84
2024/02/05 03:06:13;;;;;;;0.38;0.35;;;;;;;7.49;55.80;93294.63;2068920;69;20243;-82
2024/02/05 03:08:40;;;;;;;2.13;0.50;;;;;;;7.45;56.00;93311.09;2068886;69;20176;-83
2024/02/05 03:11:05;;;;;;;1.50;0.50;;;;;;;7.36;56.46;93306.13;2068919;69;20180;-83
2024/02/05 03:13:31;;;;;;;1.67;0.60;;;;;;;7.61;56.66;93303.28;2068803;69;20148;-83
2024/02/05 03:15:58;;;;;;;1.10;0.50;;;;;;;7.46;56.10;93284.56;2068345;69;20193;-83
2024/02/05 03:18:24;;;;;;;0.55;0.50;;;;;;;7.30;56.86;93320.41;2067836;69;20164;-85
2024/02/05 03:20:49;;;;;;;1.00;0.40;;;;;;;7.47;56.11;93324.50;2067912;69;20784;-83
2024/02/05 03:23:16;;;;;;;0.70;0.40;;;;;;;7.49;56.32;93325.44;2067953;69;20172;-82
2024/02/05 03:25:42;;;;;;;2.85;0.52;;;;;;;7.52;55.89;93307.47;2068072;69;20218;-83
2024/02/05 03:28:07;;;;;;;1.08;0.40;;;;;;;7.36;56.59;93315.28;2068556;69;20195;-83
2024/02/05 03:30:34;;;;;;;1.40;0.70;;;;;;;7.30;56.65;93323.19;2069581;69;20595;-82
2024/02/05 03:33:02;;;;;;;1.13;0.57;;;;;;;7.32;56.99;93300.19;2076273;69;20176;-82
2024/02/05 03:35:28;;;;;;;1.17;0.60;;;;;;;7.34;56.58;93314.38;2070950;69;20270;-82
2024/02/05 03:37:54;;;;;;;1.83;0.60;;;;;;;7.16;56.91;93324.09;2065928;69;20155;-82
2024/02/05 03:40:22;;;;;;;4.90;1.20;;;;;;;7.13;57.45;93314.75;2064147;69;20164;-83
2024/02/05 03:42:54;;;;;;;1.00;0.40;;;;;;;7.21;56.94;93306.28;2065126;69;20227;-82
2024/02/05 03:45:20;;;;;;;2.63;1.83;;;;;;;7.30;56.87;93312.00;2064526;69;20705;-83
2024/02/05 03:47:46;;;;;;;1.15;0.68;;;;;;;7.30;56.51;93323.19;2064551;69;20160;-84
2024/02/05 03:50:12;;;;;;;1.27;0.60;;;;;;;7.27;56.85;93321.53;2064398;69;20514;-82
2024/02/05 03:52:48;;;;;;;2.42;0.57;;;;;;;7.23;56.78;93324.00;2064501;69;20196;-81
2024/02/05 03:55:15;;;;;;;0.75;0.50;;;;;;;7.06;57.23;93321.19;2068438;69;20148;-82
2024/02/05 03:57:57;;;;;;;1.25;0.70;;;;;;;6.43;58.83;93313.81;2068793;69;20218;-81
2024/02/05 04:00:23;;;;;;;2.40;0.88;;;;;;;6.45;59.82;93304.84;2068585;69;20516;-82
2024/02/05 04:02:49;;;;;;;0.60;0.50;;;;;;;6.59;59.64;93328.44;2068517;69;20227;-83
2024/02/05 04:05:14;;;;;;;1.77;0.85;;;;;;;6.34;59.97;93317.97;2068680;69;20604;-81
2024/02/05 04:07:40;;;;;;;1.30;0.60;;;;;;;6.65;59.47;93331.75;2068253;69;20283;-82
2024/02/05 04:10:06;;;;;;;1.40;0.63;;;;;;;6.62;59.51;93333.63;2067839;69;20136;-84
2024/02/05 04:12:33;;;;;;;2.10;0.90;;;;;;;6.73;59.25;93324.03;2068735;69;20156;-81
2024/02/05 04:14:58;;;;;;;1.17;0.65;;;;;;;6.60;58.99;93322.28;2068511;69;20243;-81
2024/02/05 04:17:26;;;;;;;1.58;0.70;;;;;;;6.56;59.06;93340.78;2068425;69;20600;-84
2024/02/05 04:19:54;;;;;;;3.47;0.93;;;;;;;6.68;58.17;93339.00;2068229;69;20187;-79
2024/02/05 04:22:20;;;;;;;1.38;0.65;;;;;;;6.59;59.10;93334.78;2067946;69;20579;-82
2024/02/05 04:24:46;;;;;;;0.73;0.60;;;;;;;6.69;58.45;93336.94;2068610;69;20155;-82
2024/02/05 04:27:14;;;;;;;0.65;0.52;;;;;;;6.84;57.95;93337.59;2068536;69;20151;-82
2024/02/05 04:29:40;;;;;;;1.50;0.70;;;;;;;6.68;58.26;93341.81;2069619;69;20144;-79
2024/02/05 04:32:06;;;;;;;1.48;0.70;;;;;;;6.21;59.76;93335.00;2070976;69;20594;-81
2024/02/05 04:34:32;;;;;;;2.88;0.80;;;;;;;6.47;59.02;93347.72;2068727;69;20144;-83
2024/02/05 04:36:58;;;;;;;2.55;0.70;;;;;;;6.50;58.94;93346.56;2068569;69;20581;-82
2024/02/05 04:39:24;;;;;;;3.75;1.20;;;;;;;6.17;60.11;93336.72;2068410;69;20141;-83
2024/02/05 04:41:50;;;;;;;1.10;0.82;;;;;;;6.23;59.42;93340.78;2068099;69;20667;-83
2024/02/05 04:44:16;;;;;;;1.23;0.90;;;;;;;6.44;59.63;93345.31;2068140;69;20172;-81
2024/02/05 04:46:42;;;;;;;3.67;2.20;;;;;;;6.20;59.65;93347.50;2067989;69;20156;-83
2024/02/05 04:49:08;;;;;;;2.20;1.27;;;;;;;6.32;59.45;93342.97;2067468;69;20187;-84
2024/02/05 04:51:34;;;;;;;2.30;1.30;;;;;;;6.21;60.08;93339.88;2068357;69;20223;-80
2024/02/05 04:54:00;;;;;;;2.55;1.20;;;;;;;6.25;59.75;93326.97;2067276;69;20168;-84
2024/02/05 04:56:25;;;;;;;2.75;1.10;;;;;;;6.15;60.32;93342.88;2064067;69;20141;-82
2024/02/05 04:58:53;;;;;;;17.60;10.70;;;;;;;5.94;61.23;93373.16;2065087;69;20535;-82
2024/02/05 05:01:18;;;;;;;6.13;2.72;;;;;;;6.08;60.92;93354.81;2065504;69;20223;-80
2024/02/05 05:03:44;;;;;;;4.40;2.15;;;;;;;6.09;60.02;93348.69;2065391;69;20508;-82
2024/02/05 05:06:10;;;;;;;5.38;2.00;;;;;;;5.46;61.73;93334.72;2067017;69;20160;-84
2024/02/05 05:08:35;;;;;;;3.63;1.95;;;;;;;5.95;60.88;93344.63;2068420;69;20507;-82
2024/02/05 05:11:02;;;;;;;3.00;1.63;;;;;;;5.82;60.93;93362.38;2068773;69;20172;-82
2024/02/05 05:13:27;;;;;;;3.75;1.70;;;;;;;5.85;61.25;93369.59;2068013;69;20183;-82
2024/02/05 05:15:56;;;;;;;2.15;1.20;;;;;;;5.89;60.71;93343.34;2065516;69;20149;-84
2024/02/05 05:18:21;;;;;;;3.40;1.40;;;;;;;6.06;60.89;93374.97;2065518;69;20152;-83
2024/02/05 05:20:47;;;;;;;3.78;1.70;;;;;;;5.85;61.05;93378.00;2065655;69;20168;-83
2024/02/05 05:23:15;;;;;;;2.85;1.60;;;;;;;5.99;60.98;93367.34;2065772;69;20243;-84
2024/02/05 05:25:40;;;;;;;2.33;1.73;;;;;;;5.93;60.71;93372.41;2065294;69;20236;-85
2024/02/05 05:28:07;;;;;;;4.00;1.70;;;;;;;5.75;61.54;93376.34;2065196;69;20307;-84
2024/02/05 05:30:33;;;;;;;9.50;4.22;;;;;;;5.74;61.68;93383.25;2065708;69;20604;-83
2024/02/05 05:32:59;;;;;;;5.03;2.47;;;;;;;5.92;60.53;93387.69;2064825;69;20137;-83
2024/02/05 05:35:25;;;;;;;6.05;2.55;;;;;;;5.96;60.18;93376.16;2065653;69;20668;-83
2024/02/05 05:37:50;;;;;;;6.32;2.60;;;;;;;6.06;59.81;93391.00;2065216;69;20139;-82
2024/02/05 05:40:16;;;;;;;6.25;2.75;;;;;;;5.86;61.45;93395.50;2065601;69;20598;-83
2024/02/05 05:42:41;;;;;;;7.18;2.40;;;;;;;5.39;62.63;93419.25;2065634;69;20239;-83
2024/02/05 05:45:07;;;;;;;3.88;2.25;;;;;;;5.56;62.21;93387.97;2065549;69;20284;-83
2024/02/05 05:47:33;;;;;;;4.20;2.40;;;;;;;5.58;62.40;93399.28;2065613;69;20236;-84
2024/02/05 05:49:59;;;;;;;5.15;2.58;;;;;;;5.62;62.03;93396.88;2065970;69;20180;-83
2024/02/05 05:52:25;;;;;;;6.05;2.47;;;;;;;5.72;61.69;93408.22;2065815;69;20504;-82
2024/02/05 05:54:51;;;;;;;4.63;2.00;;;;;;;5.83;60.63;93397.38;2065876;69;20144;-83
2024/02/05 05:57:16;;;;;;;3.03;1.67;;;;;;;5.89;60.56;93386.00;2068438;69;20147;-81
2024/02/05 05:59:42;;;;;;;7.38;2.60;;;;;;;5.67;61.26;93389.59;2066456;69;20160;-82
2024/02/05 06:02:08;;;;;;;5.88;2.30;;;;;;;5.38;62.41;93397.47;2068685;69;20236;-82
2024/02/05 06:04:36;;;;;;;4.30;2.22;;;;;;;5.37;62.57;93409.97;2066416;69;20214;-84
2024/02/05 06:07:06;;;;;;;7.22;1.90;;;;;;;5.50;61.98;93388.16;2065691;69;20144;-83
2024/02/05 06:09:32;;;;;;;4.82;1.70;;;;;;;5.68;61.49;93382.69;2065527;69;20144;-81
2024/02/05 06:11:58;;;;;;;2.65;1.83;;;;;;;5.56;62.21;93402.66;2068825;69;20169;-82
2024/02/05 06:14:24;;;;;;;6.72;2.65;;;;;;;5.54;61.15;93396.91;2068806;69;20161;-84
2024/02/05 06:16:49;;;;;;;5.75;2.47;;;;;;;5.55;60.78;93403.97;2067326;69;20226;-83
2024/02/05 06:19:15;;;;;;;7.82;3.10;;;;;;;5.63;60.83;93398.34;2067936;69;20208;-82
2024/02/05 06:21:40;;;;;;;6.30;3.70;;;;;;;5.50;61.36;93401.38;2067562;69;20623;-84
2024/02/05 06:24:06;;;;;;;4.68;3.10;;;;;;;5.68;60.49;93408.59;2068124;69;20145;-84
2024/02/05 06:26:32;;;;;;;6.15;2.65;;;;;;;5.70;60.01;93399.66;2067726;69;20155;-85
2024/02/05 06:28:57;;;;;;;4.85;2.60;;;;;;;5.70;61.07;93402.44;2068109;69;20638;-85
2024/02/05 06:31:23;;;;;;;3.22;2.05;;;;;;;5.67;60.68;93406.34;2068524;69;20690;-85
2024/02/05 06:33:48;;;;;;;4.10;2.50;;;;;;;5.63;60.38;93403.19;2067729;69;20148;-82
2024/02/05 06:36:14;;;;;;;9.10;4.72;;;;;;;5.53;60.65;93392.59;2068347;69;20196;-82
2024/02/05 06:38:41;;;;;;;16.88;5.35;;;;;;;5.52;60.83;93409.94;2068532;69;20137;-81
2024/02/05 06:41:07;;;;;;;10.82;5.10;;;;;;;5.22;61.69;93399.53;2068354;69;20149;-80
2024/02/05 06:43:36;;;;;;;19.15;8.30;;;;;;;5.40;61.93;93400.44;2069912;69;20148;-82
2024/02/05 06:46:03;;;;;;;11.52;5.20;;;;;;;5.46;61.74;93407.34;2072103;69;20315;-80
2024/02/05 06:48:31;;;;;;;5.95;3.38;;;;;;;5.48;61.56;93387.97;2071903;69;20144;-80
2024/02/05 06:50:57;;;;;;;20.45;8.40;;;;;;;5.12;62.21;93409.78;2071989;69;20235;-80
2024/02/05 06:53:22;;;;;;;14.82;6.53;;;;;;;4.94;62.90;93426.31;2072060;69;20172;-81
2024/02/05 06:55:48;;;;;;;13.70;6.80;;;;;;;5.06;62.63;93390.44;2072104;69;20168;-80
2024/02/05 06:58:13;;;;;;;13.55;6.15;;;;;;;5.32;61.75;93417.22;2072098;69;20148;-81
2024/02/05 07:00:39;;;;;;;15.27;6.35;;;;;;;5.39;61.56;93427.63;2071533;69;20603;-81
2024/02/05 07:03:05;;;;;;;12.77;5.88;;;;;;;5.32;61.79;93428.38;2070996;69;20140;-79
2024/02/05 07:05:30;;;;;;;13.15;6.03;;;;;;;5.22;62.01;93419.06;2068713;69;20175;-82
2024/02/05 07:07:56;;;;;;;11.48;6.28;;;;;;;5.10;62.14;93441.03;2068919;69;20163;-81
2024/02/05 07:10:22;;;;;;;13.65;6.88;;;;;;;5.02;62.68;93449.41;2068721;69;20225;-81
2024/02/05 07:12:47;;;;;;;17.00;7.07;;;;;;;5.30;61.89;93450.53;2068730;69;20164;-80
2024/02/05 07:15:13;;;;;;;15.80;6.45;;;;;;;5.06;62.79;93441.41;2068696;69;20462;-79
2024/02/05 07:17:39;;;;;;;44.13;17.05;;;;;;;5.23;62.81;93446.44;2066815;69;20588;-79
2024/02/05 07:20:06;;;;;;;23.40;11.10;;;;;;;5.35;63.85;93463.56;2065466;69;20141;-80
2024/02/05 07:22:31;;;;;;;12.68;5.82;;;;;;;5.34;63.24;93454.44;2065157;69;20144;-81
2024/02/05 07:24:57;;;;;;;11.38;5.00;;;;;;;5.52;61.62;93446.25;2064991;69;20160;-80
2024/02/05 07:27:25;;;;;;;9.10;4.22;;;;;;;5.69;60.38;93443.63;2064940;69;20141;-80
2024/02/05 07:29:51;;;;;;;15.50;8.77;;;;;;;5.50;60.90;93449.59;2065229;69;20145;-80
2024/02/05 07:32:18;;;;;;;13.93;8.70;;;;;;;5.73;60.10;93457.94;2065267;69;20182;-80
2024/02/05 07:34:45;;;;;;;8.10;3.45;;;;;;;5.75;60.82;93454.59;2063918;69;20611;-81
2024/02/05 07:37:11;;;;;;;3.63;2.10;;;;;;;5.83;60.29;93446.94;2064531;69;20257;-80
2024/02/05 07:39:37;;;;;;;7.55;4.13;;;;;;;5.62;60.49;93461.13;2064560;69;20171;-81
2024/02/05 07:42:03;;;;;;;15.43;8.00;;;;;;;5.52;60.87;93446.25;2063826;69;20164;-82
2024/02/05 07:44:29;;;;;;;12.57;5.65;;;;;;;5.72;60.42;93450.13;2063882;69;20140;-82
2024/02/05 07:46:55;;;;;;;10.65;5.82;;;;;;;5.70;60.34;93463.91;2064140;69;20228;-82
2024/02/05 07:49:22;;;;;;;11.07;5.05;;;;;;;5.82;59.66;93462.97;2064465;69;20176;-81
2024/02/05 07:51:49;;;;;;;8.88;5.00;;;;;;;5.87;59.37;93441.72;2064527;69;20188;-86
2024/02/05 07:54:17;;;;;;;10.05;4.30;;;;;;;5.59;59.58;93443.44;2064435;69;20149;-82
2024/02/05 07:56:43;;;;;;;10.55;5.10;;;;;;;5.86;59.51;93448.59;2064725;69;20602;-82
2024/02/05 07:59:10;;;;;;;7.35;4.50;;;;;;;5.76;59.90;93464.44;2065069;69;20140;-80
2024/02/05 08:01:36;;;;;;;7.60;4.30;;;;;;;5.79;60.39;93438.19;2065251;69;20250;-81
2024/02/05 08:04:02;;;;;;;7.47;3.95;;;;;;;5.62;60.15;93447.16;2064630;69;20147;-81
2024/02/05 08:06:30;;;;;;;15.18;7.72;;;;;;;5.52;60.80;93455.34;2064735;69;20532;-80
2024/02/05 08:08:56;;;;;;;10.50;5.35;;;;;;;5.87;59.76;93466.88;2065288;69;20145;-81
2024/02/05 08:11:24;;;;;;;11.90;5.72;;;;;;;5.80;60.05;93459.97;2065455;69;20148;-81
2024/02/05 08:13:50;;;;;;;9.85;5.55;;;;;;;5.93;59.89;93464.63;2065353;69;20153;-81
2024/02/05 08:16:15;;;;;;;8.45;4.45;;;;;;;5.78;60.58;93459.06;2065235;69;20157;-83
2024/02/05 08:18:41;;;;;;;6.97;3.88;;;;;;;5.92;60.31;93451.97;2065203;69;20151;-83
2024/02/05 08:21:07;;;;;;;8.65;4.80;;;;;;;5.51;61.34;93458.72;2065247;69;20136;-80
2024/02/05 08:23:33;;;;;;;19.38;6.70;;;;;;;5.52;60.46;93449.78;2065279;69;20220;-82
2024/02/05 08:25:58;;;;;;;12.48;6.53;;;;;;;5.86;59.89;93456.97;2065382;69;20596;-81
2024/02/05 08:28:24;;;;;;;13.32;5.63;;;;;;;6.06;59.14;93452.50;2064741;69;20149;-81
2024/02/05 08:30:49;;;;;;;10.55;4.82;;;;;;;6.10;59.30;93450.06;2065295;69;20152;-81
2024/02/05 08:33:15;;;;;;;9.43;3.95;;;;;;;6.16;59.62;93449.84;2065259;69;20149;-81
2024/02/05 08:35:43;;;;;;;5.47;2.55;;;;;;;6.04;59.38;93443.91;2065629;69;20234;-81
2024/02/05 08:38:11;;;;;;;5.57;3.55;;;;;;;6.20;59.18;93439.78;2065307;69;20544;-80
2024/02/05 08:40:38;;;;;;;24.05;7.90;;;;;;;6.72;59.00;93442.88;2065805;69;20581;-80
2024/02/05 08:43:04;;;;;;;23.45;6.13;;;;;;;7.22;58.75;93440.13;2065852;69;20148;-81
2024/02/05 08:45:30;;;;;;;7.38;3.00;;;;;;;7.79;58.05;93436.50;2065741;69;20149;-80
2024/02/05 08:47:56;;;;;;;19.75;8.73;;;;;;;7.53;56.96;93445.50;2065770;69;20607;-80
2024/02/05 08:50:31;;;;;;;17.85;8.20;;;;;;;8.16;56.93;93439.47;2065786;69;20141;-81
2024/02/05 08:52:57;;;;;;;11.27;5.70;;;;;;;8.47;56.26;93433.53;2065611;69;20231;-81
2024/02/05 08:55:22;;;;;;;10.10;4.65;;;;;;;9.14;55.82;93433.94;2065558;69;20195;-82
2024/02/05 08:57:50;;;;;;;8.65;4.22;;;;;;;9.48;51.46;93428.72;2065514;69;20668;-81
2024/02/05 09:00:17;;;;;;;15.10;6.28;;;;;;;9.63;51.66;93420.78;2065496;69;20141;-81
2024/02/05 09:02:44;;;;;;;13.70;6.35;;;;;;;9.67;50.33;93429.53;2064686;69;20149;-80
2024/02/05 09:05:10;;;;;;;15.52;5.68;;;;;;;9.85;50.21;93432.22;2066360;69;20159;-81
2024/02/05 09:07:35;;;;;;;9.93;5.50;;;;;;;10.27;51.32;93431.88;2065526;69;20194;-81
2024/02/05 09:10:02;;;;;;;14.30;5.57;;;;;;;10.39;49.77;93427.13;2065421;69;20142;-81
2024/02/05 09:12:32;;;;;;;14.68;5.32;;;;;;;11.05;50.16;93414.88;2065473;69;20157;-81
2024/02/05 09:14:58;;;;;;;14.60;6.28;;;;;;;11.41;49.44;93427.97;2064728;69;20163;-81
2024/02/05 09:17:23;;;;;;;23.35;7.10;;;;;;;11.24;48.41;93431.00;2065488;69;20157;-80
2024/02/05 09:19:49;;;;;;;14.57;5.63;;;;;;;11.57;49.17;93414.25;2065669;69;20596;-83
2024/02/05 09:22:14;;;;;;;15.57;5.47;;;;;;;12.03;48.56;93416.69;2065460;69;20620;-84
2024/02/05 09:24:40;;;;;;;9.20;4.50;;;;;;;11.94;46.87;93406.19;2065394;69;20144;-83
2024/02/05 09:27:06;;;;;;;20.17;6.25;;;;;;;12.34;46.44;93416.59;2061987;69;20149;-84
2024/02/05 09:29:32;;;;;;;18.67;5.25;;;;;;;12.65;46.16;93407.31;2065645;69;20168;-83
2024/02/05 09:31:58;;;;;;;11.00;2.70;;;;;;;13.39;42.89;93393.59;2065520;69;20579;-79
2024/02/05 09:34:24;;;;;;;13.15;4.88;;;;;;;13.31;43.41;93404.41;2065600;69;20250;-84
2024/02/05 09:36:51;;;;;;;12.05;5.97;;;;;;;13.56;44.70;93417.22;2065781;69;20177;-82
2024/02/05 09:39:17;;;;;;;14.63;5.50;;;;;;;13.06;45.27;93404.97;2065629;69;20161;-84
2024/02/05 09:41:43;;;;;;;11.75;5.47;;;;;;;13.89;44.55;93408.59;2065757;69;20585;-81
2024/02/05 09:44:10;;;;;;;13.98;5.20;;;;;;;14.33;43.38;93404.81;2065586;69;20177;-79
2024/02/05 09:46:38;;;;;;;12.50;4.93;;;;;;;15.31;41.83;93407.50;2065542;69;20137;-82
2024/02/05 09:49:05;;;;;;;14.48;5.40;;;;;;;14.87;40.99;93412.19;2064868;69;20149;-81
2024/02/05 09:51:37;;;;;;;7.72;4.07;;;;;;;14.83;42.45;93411.94;2065694;69;20148;-82
2024/02/05 09:54:03;;;;;;;12.20;4.28;;;;;;;15.71;41.93;93414.66;2065560;69;20145;-80
2024/02/05 09:56:30;;;;;;;7.07;2.95;;;;;;;15.81;40.75;93408.06;2065497;69;20182;-82
2024/02/05 09:58:56;;;;;;;7.50;2.78;;;;;;;16.62;39.08;93408.59;2065407;69;20581;-83
2024/02/05 10:01:25;;;;;;;5.65;3.15;;;;;;;16.62;38.99;93394.38;2065458;69;20160;-81
2024/02/05 10:03:53;;;;;;;9.23;3.70;;;;;;;15.47;40.79;93399.13;2065276;69;20149;-81
2024/02/05 10:06:21;;;;;;;8.63;3.58;;;;;;;15.54;40.76;93415.13;2064934;69;20236;-83
2024/02/05 10:08:54;;;;;;;7.55;3.60;;;;;;;16.92;39.44;93409.41;2065512;69;20232;-83
2024/02/05 10:11:22;;;;;;;7.13;2.80;;;;;;;17.92;38.47;93394.16;2065420;69;20141;-83
2024/02/05 10:13:48;;;;;;;5.75;1.83;;;;;;;18.65;35.46;93394.44;2065358;69;20165;-82
2024/02/05 10:16:14;;;;;;;19.90;7.80;;;;;;;17.11;37.04;93411.00;2065401;69;20242;-83
2024/02/05 10:18:40;;;;;;;9.23;3.85;;;;;;;17.63;38.88;93392.09;2065438;69;20137;-83
2024/02/05 10:21:06;;;;;;;10.82;3.80;;;;;;;18.75;37.21;93403.44;2065504;69;20248;-83
2024/02/05 10:23:31;;;;;;;12.20;4.80;;;;;;;18.10;35.37;93397.81;2065515;69;20191;-82
2024/02/05 10:25:58;;;;;;;15.35;6.78;;;;;;;18.37;36.49;93398.91;2065405;69;20267;-82
2024/02/05 10:28:23;;;;;;;20.33;6.75;;;;;;;19.26;36.55;93388.38;2065327;69;20222;-82
2024/02/05 10:30:51;;;;;;;10.15;3.95;;;;;;;18.96;35.03;93407.13;2065392;69;20248;-83
2024/02/05 10:33:18;;;;;;;5.18;2.50;;;;;;;18.87;35.43;93397.50;2065710;69;20149;-83
2024/02/05 10:35:43;;;;;;;5.45;2.67;;;;;;;19.74;33.75;93388.06;2065771;69;20129;-83
2024/02/05 10:38:11;;;;;;;4.03;2.50;;;;;;;20.86;34.20;93382.78;2065371;69;20274;-83
2024/02/05 10:40:38;;;;;;;13.52;5.63;;;;;;;21.03;33.00;93374.06;2065355;69;20168;-84
2024/02/05 10:43:04;;;;;;;14.25;5.10;;;;;;;21.74;31.03;93380.56;2064846;69;20520;-83
2024/02/05 10:45:31;;;;;;;6.35;2.47;;;;;;;22.16;31.16;93386.09;2064417;69;20604;-84
2024/02/05 10:47:57;;;;;;;5.05;1.38;;;;;;;23.23;30.61;93382.53;2064696;69;20137;-83
2024/02/05 10:50:23;;;;;;;2.88;0.90;;;;;;;23.81;28.65;93373.09;2065474;69;20219;-83
2024/02/05 10:52:48;;;;;;;3.45;1.40;;;;;;;23.83;28.31;93376.75;2065437;69;20223;-83
2024/02/05 10:55:15;;;;;;;14.18;8.77;;;;;;;24.06;28.18;93383.72;2065584;69;20477;-84
2024/02/05 10:57:43;;;;;;;8.23;2.83;;;;;;;25.11;25.95;93366.34;2065233;69;20152;-84
2024/02/05 11:00:09;;;;;;;1.98;1.30;;;;;;;25.87;25.95;93368.25;2065330;69;20155;-83
2024/02/05 11:02:39;;;;;;;24.88;16.38;;;;;;;25.00;26.13;93367.53;2065385;69;20147;-83
2024/02/05 11:05:07;;;;;;;6.90;2.80;;;;;;;22.56;29.01;93366.44;2065425;69;20144;-83
2024/02/05 11:07:44;;;;;;;4.93;2.60;;;;;;;24.05;29.14;93359.25;2064483;69;20235;-84
2024/02/05 11:10:10;;;;;;;5.32;2.55;;;;;;;27.36;25.83;93358.41;2065546;69;20149;-84
2024/02/05 11:12:37;;;;;;;6.95;3.35;;;;;;;27.45;25.29;93351.25;2064854;69;20155;-84
2024/02/05 11:15:09;;;;;;;7.45;2.30;;;;;;;25.00;26.40;93353.13;2065394;69;20129;-84
2024/02/05 11:17:36;;;;;;;3.17;1.90;;;;;;;26.71;26.10;93354.88;2064628;69;20153;-84
2024/02/05 11:20:05;;;;;;;2.85;1.20;;;;;;;28.99;24.48;93341.19;2065253;69;20164;-84
2024/02/05 11:22:31;;;;;;;5.18;1.58;;;;;;;31.67;22.47;93352.75;2065141;69;20248;-84
2024/02/05 11:24:57;;;;;;;6.82;1.40;;;;;;;30.48;22.88;93361.44;2065405;69;20141;-83
2024/02/05 11:27:23;;;;;;;4.72;1.45;;;;;;;28.87;23.24;93360.00;2065614;69;20528;-82
2024/02/05 11:29:49;;;;;;;2.85;1.05;;;;;;;29.02;23.07;93346.28;2065353;69;20141;-84
2024/02/05 11:32:16;;;;;;;4.35;1.13;;;;;;;31.81;22.58;93347.53;2065277;69;20550;-85
2024/02/05 11:34:42;;;;;;;4.00;1.20;;;;;;;32.23;20.67;93342.78;2065294;69;20140;-85